createdAt,value
2022-11-21T00:01:32.437Z,12.38
2022-11-21T00:04:01.330Z,9.55
2022-11-21T00:06:30.535Z,9.85
2022-11-21T00:08:59.495Z,11.77
2022-11-21T00:11:28.479Z,10.73
2022-11-21T00:13:57.463Z,10.07
2022-11-21T00:16:26.581Z,11.70
2022-11-21T00:18:55.622Z,13.30
2022-11-21T00:21:24.725Z,11.07
2022-11-21T00:23:54.251Z,11.53
2022-11-21T00:26:23.493Z,11.35
2022-11-21T00:28:52.381Z,10.57
2022-11-21T00:31:23.840Z,12.30
2022-11-21T00:33:53.293Z,12.90
2022-11-21T00:36:22.076Z,13.57
2022-11-21T00:38:51.106Z,11.77
2022-11-21T00:41:20.105Z,10.15
2022-11-21T00:43:49.566Z,11.00
2022-11-21T00:46:18.378Z,9.73
2022-11-21T00:48:47.707Z,10.93
2022-11-21T00:51:16.506Z,9.80
2022-11-21T00:53:45.566Z,10.50
2022-11-21T00:56:14.666Z,9.57
2022-11-21T00:58:43.968Z,9.68
2022-11-21T01:01:16.090Z,8.93
2022-11-21T01:03:47.176Z,10.20
2022-11-21T01:06:17.109Z,11.23
2022-11-21T01:08:46.835Z,10.40
2022-11-21T01:11:18.241Z,9.50
2022-11-21T01:13:48.892Z,10.88
2022-11-21T01:16:20.467Z,11.75
2022-11-21T01:18:50.212Z,10.83
2022-11-21T01:21:30.757Z,10.10
2022-11-21T01:24:03.800Z,10.40
2022-11-21T01:26:39.036Z,11.77
2022-11-21T01:29:09.814Z,13.88
2022-11-21T01:31:38.852Z,10.82
2022-11-21T01:34:07.641Z,10.70
2022-11-21T01:36:37.319Z,13.50
2022-11-21T01:39:08.051Z,11.68
2022-11-21T01:41:41.196Z,11.53
2022-11-21T01:44:20.555Z,11.38
2022-11-21T01:46:51.316Z,10.90
2022-11-21T01:49:28.525Z,9.35
2022-11-21T01:52:27.292Z,9.63
2022-11-21T01:55:01.620Z,8.52
2022-11-21T01:57:42.132Z,8.98
2022-11-21T02:00:22.914Z,10.17
2022-11-21T02:02:59.750Z,9.73
2022-11-21T02:05:32.606Z,11.80
2022-11-21T02:08:07.569Z,10.90
2022-11-21T02:10:39.925Z,10.18
2022-11-21T02:13:09.194Z,10.98
2022-11-21T02:15:38.283Z,10.25
2022-11-21T02:18:16.235Z,10.68
2022-11-21T02:20:52.669Z,10.57
2022-11-21T02:23:50.840Z,11.50
2022-11-21T02:26:20.593Z,10.43
2022-11-21T02:28:49.445Z,10.63
2022-11-21T02:31:18.634Z,9.50
2022-11-21T02:33:47.469Z,10.30
2022-11-21T02:36:35.116Z,10.63
2022-11-21T02:39:06.926Z,10.77
2022-11-21T02:41:39.132Z,11.18
2022-11-21T02:44:14.863Z,11.98
2022-11-21T02:46:54.312Z,9.98
2022-11-21T02:49:49.716Z,10.18
2022-11-21T02:52:19.133Z,8.85
2022-11-21T02:54:48.014Z,12.35
2022-11-21T02:57:17.031Z,10.75
2022-11-21T02:59:46.005Z,10.63
2022-11-21T03:02:15.013Z,11.07
2022-11-21T03:04:43.836Z,11.07
2022-11-21T03:07:13.859Z,10.60
2022-11-21T03:09:42.736Z,11.35
2022-11-21T03:12:12.484Z,12.57
2022-11-21T03:14:41.409Z,10.20
2022-11-21T03:17:10.476Z,10.13
2022-11-21T03:19:39.370Z,10.65
2022-11-21T03:22:08.861Z,10.20
2022-11-21T03:24:37.716Z,11.00
2022-11-21T03:27:06.904Z,11.23
2022-11-21T03:29:35.793Z,12.35
2022-11-21T03:32:05.094Z,12.15
2022-11-21T03:34:34.430Z,10.32
2022-11-21T03:37:04.144Z,10.90
2022-11-21T03:39:32.994Z,10.45
2022-11-21T03:42:02.131Z,11.50
2022-11-21T03:44:31.585Z,11.13
2022-11-21T03:47:00.607Z,10.32
2022-11-21T03:49:29.330Z,12.00
2022-11-21T03:51:58.477Z,9.38
2022-11-21T03:54:27.781Z,10.98
2022-11-21T03:56:57.047Z,10.80
2022-11-21T03:59:27.493Z,10.38
2022-11-21T04:01:56.763Z,12.23
2022-11-21T04:04:25.977Z,11.38
2022-11-21T04:06:55.460Z,11.75
2022-11-21T04:09:24.374Z,12.77
2022-11-21T04:11:53.402Z,11.48
2022-11-21T04:14:22.256Z,11.52
2022-11-21T04:16:51.867Z,11.37
2022-11-21T04:19:20.712Z,10.93
2022-11-21T04:21:49.874Z,11.88
2022-11-21T04:24:18.791Z,13.20
2022-11-21T04:26:48.064Z,12.07
2022-11-21T04:29:17.882Z,12.27
2022-11-21T04:31:47.095Z,11.95
2022-11-21T04:34:16.021Z,12.45
2022-11-21T04:36:45.379Z,12.57
2022-11-21T04:39:14.422Z,11.82
2022-11-21T04:41:43.666Z,12.27
2022-11-21T04:44:12.679Z,12.60
2022-11-21T04:46:41.653Z,11.60
2022-11-21T04:49:10.421Z,10.75
2022-11-21T04:51:39.638Z,13.27
2022-11-21T04:54:09.021Z,12.88
2022-11-21T04:56:39.149Z,11.80
2022-11-21T04:59:08.997Z,13.45
2022-11-21T05:01:39.141Z,12.90
2022-11-21T05:04:08.806Z,12.20
2022-11-21T05:06:37.681Z,13.05
2022-11-21T05:09:06.905Z,13.52
2022-11-21T05:11:54.157Z,12.73
2022-11-21T05:14:23.315Z,12.40
2022-11-21T05:16:52.232Z,12.48
2022-11-21T05:19:21.432Z,10.80
2022-11-21T05:21:51.610Z,12.52
2022-11-21T05:24:20.866Z,11.27
2022-11-21T05:26:49.746Z,12.38
2022-11-21T05:29:22.718Z,11.30
2022-11-21T05:31:55.851Z,13.50
2022-11-21T05:34:24.655Z,12.70
2022-11-21T05:37:00.081Z,11.80
2022-11-21T05:39:29.800Z,11.20
2022-11-21T05:42:03.020Z,14.35
2022-11-21T05:44:33.042Z,13.82
2022-11-21T05:47:01.905Z,11.63
2022-11-21T05:49:31.187Z,14.68
2022-11-21T05:52:00.206Z,11.77
2022-11-21T05:54:29.372Z,11.35
2022-11-21T05:56:58.707Z,11.93
2022-11-21T05:59:27.946Z,11.15
2022-11-21T06:02:15.529Z,11.63
2022-11-21T06:04:44.891Z,11.38
2022-11-21T06:07:13.797Z,11.55
2022-11-21T06:09:43.643Z,11.93
2022-11-21T06:12:12.555Z,13.57
2022-11-21T06:14:41.589Z,13.20
2022-11-21T06:17:10.390Z,12.43
2022-11-21T06:19:39.520Z,11.32
2022-11-21T06:22:08.387Z,11.35
2022-11-21T06:24:37.741Z,13.20
2022-11-21T06:27:06.584Z,12.07
2022-11-21T06:29:35.723Z,10.77
2022-11-21T06:32:04.506Z,11.65
2022-11-21T06:34:33.636Z,12.60
2022-11-21T06:37:02.389Z,13.03
2022-11-21T06:39:31.504Z,11.90
2022-11-21T06:42:00.336Z,12.85
2022-11-21T06:44:29.631Z,11.50
2022-11-21T06:46:58.630Z,11.52
2022-11-21T06:49:27.969Z,11.98
2022-11-21T06:51:56.840Z,11.55
2022-11-21T06:54:25.957Z,12.20
2022-11-21T06:56:56.708Z,11.48
2022-11-21T06:59:26.099Z,11.07
2022-11-21T07:01:54.875Z,12.10
2022-11-21T07:04:24.545Z,12.98
2022-11-21T07:06:53.547Z,12.02
2022-11-21T07:09:37.673Z,13.20
2022-11-21T07:12:25.775Z,12.40
2022-11-21T07:14:55.582Z,12.65
2022-11-21T07:17:24.702Z,12.30
2022-11-21T07:19:53.958Z,14.05
2022-11-21T07:22:22.778Z,13.40
2022-11-21T07:24:51.985Z,12.45
2022-11-21T07:27:20.913Z,11.10
2022-11-21T07:29:50.122Z,10.88
2022-11-21T07:32:19.166Z,10.05
2022-11-21T07:34:48.300Z,10.85
2022-11-21T07:37:17.155Z,10.38
2022-11-21T07:39:46.219Z,11.30
2022-11-21T07:42:15.396Z,12.38
2022-11-21T07:44:44.795Z,10.73
2022-11-21T07:47:13.793Z,11.20
2022-11-21T07:49:43.022Z,9.65
2022-11-21T07:52:12.403Z,10.65
2022-11-21T07:54:41.543Z,11.32
2022-11-21T07:57:10.724Z,10.93
2022-11-21T07:59:40.144Z,12.17
2022-11-21T08:02:09.062Z,11.40
2022-11-21T08:04:38.303Z,10.00
2022-11-21T08:07:07.141Z,10.33
2022-11-21T08:09:39.686Z,10.20
2022-11-21T08:12:09.892Z,10.35
2022-11-21T08:14:38.827Z,9.35
2022-11-21T08:17:08.723Z,10.93
2022-11-21T08:19:37.656Z,12.20
2022-11-21T08:22:09.052Z,10.70
2022-11-21T08:24:38.247Z,10.80
2022-11-21T08:27:10.523Z,10.10
2022-11-21T08:29:39.687Z,11.35
2022-11-21T08:32:09.164Z,11.43
2022-11-21T08:34:38.857Z,10.05
2022-11-21T08:37:08.954Z,10.18
2022-11-21T08:39:37.999Z,8.98
2022-11-21T08:42:09.137Z,10.40
2022-11-21T08:44:38.390Z,9.93
2022-11-21T08:47:07.574Z,10.57
2022-11-21T08:49:37.111Z,11.07
2022-11-21T08:52:09.064Z,11.73
2022-11-21T08:54:38.957Z,13.13
2022-11-21T08:57:08.048Z,10.77
2022-11-21T08:59:37.263Z,10.35
2022-11-21T09:02:12.159Z,8.73
2022-11-21T09:04:41.363Z,9.55
2022-11-21T09:07:10.233Z,10.50
2022-11-21T09:09:39.373Z,9.15
2022-11-21T09:12:08.390Z,10.38
2022-11-21T09:14:55.651Z,10.43
2022-11-21T09:17:43.262Z,10.23
2022-11-21T09:20:12.453Z,10.07
2022-11-21T09:22:41.298Z,10.10
2022-11-21T09:25:10.740Z,12.52
2022-11-21T09:27:39.850Z,10.82
2022-11-21T09:30:09.502Z,12.60
2022-11-21T09:32:38.477Z,8.63
2022-11-21T09:35:08.251Z,9.73
2022-11-21T09:37:40.436Z,11.07
2022-11-21T09:40:17.875Z,11.07
2022-11-21T09:43:16.701Z,9.63
2022-11-21T09:46:07.341Z,10.43
2022-11-21T09:48:52.903Z,11.27
2022-11-21T09:51:23.851Z,9.02
2022-11-21T09:54:05.534Z,10.00
2022-11-21T09:56:40.550Z,9.30
2022-11-21T09:59:30.870Z,10.98
2022-11-21T10:02:00.201Z,9.60
2022-11-21T10:04:29.985Z,10.70
2022-11-21T10:07:14.704Z,12.10
2022-11-21T10:10:04.637Z,10.48
2022-11-21T10:12:53.961Z,8.73
2022-11-21T10:15:41.474Z,10.77
2022-11-21T10:18:35.554Z,12.10
2022-11-21T10:21:27.618Z,10.88
2022-11-21T10:24:30.314Z,9.13
2022-11-21T10:27:12.695Z,9.87
2022-11-21T10:29:52.243Z,13.43
2022-11-21T10:32:43.160Z,12.77
2022-11-21T10:35:23.621Z,13.07
2022-11-21T10:37:52.704Z,11.07
2022-11-21T10:40:38.563Z,11.70
2022-11-21T10:43:51.172Z,11.60
2022-11-21T10:46:20.584Z,10.52
2022-11-21T10:49:01.748Z,11.43
2022-11-21T10:51:52.439Z,11.38
2022-11-21T10:54:33.721Z,13.30
2022-11-21T10:57:12.801Z,11.55
2022-11-21T10:59:42.012Z,12.18
2022-11-21T11:02:17.016Z,11.30
2022-11-21T11:04:51.982Z,13.15
2022-11-21T11:07:25.997Z,14.32
2022-11-21T11:10:27.495Z,12.98
2022-11-21T11:16:14.394Z,14.20
2022-11-21T11:19:11.131Z,14.63
2022-11-21T11:21:45.091Z,12.80
2022-11-21T11:24:14.462Z,11.95
2022-11-21T11:26:49.743Z,13.93
2022-11-21T11:29:21.714Z,14.13
2022-11-21T11:31:56.421Z,13.68
2022-11-21T11:34:40.676Z,14.35
2022-11-21T11:37:18.876Z,12.40
2022-11-21T11:39:48.354Z,14.30
2022-11-21T11:43:03.524Z,12.65
2022-11-21T11:46:17.664Z,13.23
2022-11-21T11:49:16.781Z,16.27
2022-11-21T11:51:47.024Z,23.10
2022-11-21T11:54:26.949Z,22.80
2022-11-21T11:56:57.046Z,19.45
2022-11-21T11:59:35.425Z,21.73
2022-11-21T12:02:24.707Z,21.25
2022-11-21T12:04:57.230Z,16.55
2022-11-21T12:11:15.778Z,16.05
2022-11-21T12:13:46.006Z,16.65
2022-11-21T12:16:15.611Z,17.48
2022-11-21T12:19:01.634Z,15.80
2022-11-21T12:21:30.961Z,19.00
2022-11-21T12:24:03.425Z,20.10
2022-11-21T12:26:59.344Z,15.02
2022-11-21T12:29:43.466Z,15.57
2022-11-21T12:32:31.638Z,17.40
2022-11-21T12:35:11.940Z,16.73
2022-11-21T12:38:13.025Z,15.35
2022-11-21T12:41:01.109Z,15.57
2022-11-21T12:43:54.486Z,13.15
2022-11-21T12:46:52.356Z,15.05
2022-11-21T12:50:00.749Z,21.02
2022-11-21T12:53:01.619Z,18.33
2022-11-21T12:55:39.017Z,17.73
2022-11-21T12:58:14.173Z,15.80
2022-11-21T13:01:04.981Z,17.40
2022-11-21T13:03:54.104Z,15.05
2022-11-21T13:06:42.046Z,17.50
2022-11-21T13:09:24.157Z,18.13
2022-11-21T13:12:06.172Z,17.02
2022-11-21T13:14:48.289Z,14.80
2022-11-21T13:17:23.685Z,11.38
2022-11-21T13:20:04.567Z,12.75
2022-11-21T13:22:39.906Z,14.40
2022-11-21T13:25:30.263Z,17.33
2022-11-21T13:28:21.051Z,13.07
2022-11-21T13:30:54.076Z,12.25
2022-11-21T13:33:38.769Z,13.77
2022-11-21T13:36:29.804Z,12.13
2022-11-21T13:38:58.927Z,12.27
2022-11-21T13:41:55.449Z,14.05
2022-11-21T13:44:39.528Z,18.80
2022-11-21T13:47:11.724Z,15.13
2022-11-21T13:50:02.535Z,13.52
2022-11-21T13:52:34.735Z,17.60
2022-11-21T13:55:21.955Z,15.30
2022-11-21T13:58:15.948Z,15.07
2022-11-21T14:01:15.404Z,15.63
2022-11-21T14:03:55.897Z,14.15
2022-11-21T14:06:38.742Z,17.42
2022-11-21T14:09:28.574Z,13.45
2022-11-21T14:11:58.047Z,13.43
2022-11-21T14:14:37.182Z,15.73
2022-11-21T14:17:18.578Z,13.75
2022-11-21T14:19:49.574Z,15.35
2022-11-21T14:22:35.650Z,16.15
2022-11-21T14:25:18.050Z,14.02
2022-11-21T14:27:51.267Z,14.55
2022-11-21T14:30:46.701Z,13.68
2022-11-21T14:33:23.557Z,14.98
2022-11-21T14:36:02.161Z,16.27
2022-11-21T14:38:35.453Z,17.80
2022-11-21T14:41:40.687Z,18.23
2022-11-21T14:44:09.771Z,18.52
2022-11-21T14:46:40.755Z,19.98
2022-11-21T14:49:24.576Z,18.60
2022-11-21T14:52:14.673Z,19.75
2022-11-21T14:55:27.772Z,17.33
2022-11-21T14:57:46.933Z,18.92
2022-11-21T15:00:51.369Z,18.17
2022-11-21T15:03:21.385Z,18.48
2022-11-21T15:06:08.599Z,18.33
2022-11-21T15:11:41.904Z,17.33
2022-11-21T15:14:23.961Z,17.25
2022-11-21T15:16:56.555Z,17.23
2022-11-21T15:19:30.946Z,16.20
2022-11-21T15:22:05.233Z,18.85
2022-11-21T15:24:44.906Z,17.83
2022-11-21T15:27:32.733Z,16.63
2022-11-21T15:30:24.372Z,18.10
2022-11-21T15:33:04.339Z,20.13
2022-11-21T15:35:45.324Z,16.65
2022-11-21T15:38:19.837Z,14.88
2022-11-21T15:41:26.220Z,13.48
2022-11-21T15:43:57.949Z,12.73
2022-11-21T15:46:35.261Z,14.27
2022-11-21T15:49:31.449Z,13.85
2022-11-21T15:52:11.800Z,18.20
2022-11-21T15:54:41.052Z,22.00
2022-11-21T15:57:15.618Z,19.42
2022-11-21T15:57:15.670Z,19.17
2022-11-21T15:59:46.998Z,21.10
2022-11-21T16:02:17.741Z,21.42
2022-11-21T16:04:48.035Z,19.57
2022-11-21T16:07:18.149Z,21.40
2022-11-21T16:09:48.848Z,20.42
2022-11-21T16:12:18.224Z,18.02
2022-11-21T16:14:47.132Z,19.48
2022-11-21T16:17:17.151Z,20.47
2022-11-21T16:19:47.352Z,19.40
2022-11-21T16:22:18.182Z,20.77
2022-11-21T16:24:47.515Z,20.23
2022-11-21T16:27:18.282Z,20.17
2022-11-21T16:29:47.689Z,19.20
2022-11-21T16:32:16.656Z,18.45
2022-11-21T16:34:47.064Z,18.60
2022-11-21T16:37:16.448Z,20.27
2022-11-21T16:39:46.500Z,19.20
2022-11-21T16:42:15.842Z,19.63
2022-11-21T16:44:44.694Z,17.55
2022-11-21T16:47:16.296Z,17.17
2022-11-21T16:49:48.464Z,19.30
2022-11-21T16:52:19.066Z,18.80
2022-11-21T16:54:47.945Z,19.00
2022-11-21T16:57:17.516Z,19.90
2022-11-21T16:59:47.201Z,21.55
2022-11-21T17:02:16.977Z,17.30
2022-11-21T17:04:47.048Z,19.13
2022-11-21T17:07:16.999Z,17.02
2022-11-21T17:09:46.451Z,15.40
2022-11-21T17:12:16.393Z,17.70
2022-11-21T17:14:46.891Z,15.38
2022-11-21T17:17:16.191Z,14.10
2022-11-21T17:19:46.453Z,15.70
2022-11-21T17:22:18.985Z,15.07
2022-11-21T17:24:55.607Z,13.30
2022-11-21T17:27:25.558Z,12.25
2022-11-21T17:29:54.580Z,18.40
2022-11-21T17:32:23.687Z,26.52
2022-11-21T17:34:52.578Z,18.92
2022-11-21T17:37:21.897Z,27.70
2022-11-21T17:39:50.848Z,13.40
2022-11-21T17:42:19.956Z,28.10
2022-11-21T17:44:48.747Z,26.20
2022-11-21T17:47:17.780Z,22.08
2022-11-21T17:49:48.026Z,14.40
2022-11-21T17:52:17.268Z,26.30
2022-11-21T17:54:47.097Z,24.97
2022-11-21T17:57:16.705Z,22.05
2022-11-21T17:59:47.056Z,20.60
2022-11-21T18:02:16.888Z,23.30
2022-11-21T18:04:47.053Z,25.42
2022-11-21T18:07:16.641Z,20.58
2022-11-21T18:09:45.550Z,16.23
2022-11-21T18:12:14.937Z,15.15
2022-11-21T18:14:43.866Z,13.63
2022-11-21T18:17:12.916Z,13.50
2022-11-21T18:19:41.957Z,14.57
2022-11-21T18:22:11.312Z,14.07
2022-11-21T18:24:40.368Z,13.02
2022-11-21T18:27:10.280Z,14.75
2022-11-21T18:29:40.048Z,14.10
2022-11-21T18:32:08.964Z,14.38
2022-11-21T18:34:38.880Z,12.77
2022-11-21T18:37:07.858Z,14.45
2022-11-21T18:39:37.035Z,12.13
2022-11-21T18:42:06.401Z,13.27
2022-11-21T18:44:35.535Z,12.70
2022-11-21T18:47:19.321Z,15.05
2022-11-21T18:49:50.057Z,11.27
2022-11-21T18:52:20.826Z,14.35
2022-11-21T18:54:51.150Z,12.25
2022-11-21T18:57:19.949Z,11.80
2022-11-21T18:59:48.767Z,10.43
2022-11-21T19:02:17.623Z,10.47
2022-11-21T19:04:46.686Z,9.90
2022-11-21T19:07:15.771Z,9.73
2022-11-21T19:09:44.956Z,7.93
2022-11-21T19:12:13.984Z,10.48
2022-11-21T19:14:42.767Z,9.30
2022-11-21T19:17:12.087Z,8.63
2022-11-21T19:19:41.031Z,15.43
2022-11-21T19:22:10.664Z,11.38
2022-11-21T19:24:39.638Z,15.90
2022-11-21T19:27:08.807Z,11.40
2022-11-21T19:29:37.595Z,8.93
2022-11-21T19:32:07.174Z,10.35
2022-11-21T19:34:36.079Z,9.60
2022-11-21T19:37:05.202Z,8.63
2022-11-21T19:39:34.077Z,8.88
2022-11-21T19:42:03.154Z,9.45
2022-11-21T19:44:32.019Z,8.85
2022-11-21T19:47:01.316Z,10.75
2022-11-21T19:49:30.379Z,12.82
2022-11-21T19:51:59.705Z,19.02
2022-11-21T19:54:28.944Z,11.65
2022-11-21T19:56:58.288Z,11.35
2022-11-21T19:59:27.789Z,12.03
2022-11-21T20:01:57.147Z,13.10
2022-11-21T20:04:26.033Z,13.65
2022-11-21T20:06:55.273Z,15.30
2022-11-21T20:09:24.973Z,14.90
2022-11-21T20:11:54.201Z,14.27
2022-11-21T20:14:23.284Z,15.30
2022-11-21T20:16:54.259Z,16.03
2022-11-21T20:19:25.768Z,10.35
2022-11-21T20:21:54.835Z,10.10
2022-11-21T20:24:24.116Z,6.45
2022-11-21T20:26:54.105Z,8.38
2022-11-21T20:29:23.011Z,7.53
2022-11-21T20:31:51.973Z,7.53
2022-11-21T20:34:21.099Z,7.28
2022-11-21T20:36:50.079Z,7.40
2022-11-21T20:39:22.397Z,7.28
2022-11-21T20:41:51.678Z,8.32
2022-11-21T20:47:11.917Z,7.53
2022-11-21T20:49:40.875Z,6.25
2022-11-21T20:53:36.887Z,5.75
2022-11-21T20:54:59.484Z,10.48
2022-11-21T20:57:30.255Z,9.18
2022-11-21T20:59:59.530Z,8.98
2022-11-21T21:02:28.331Z,5.47
2022-11-21T21:04:57.329Z,5.13
2022-11-21T21:07:26.327Z,5.57
2022-11-21T21:09:57.766Z,5.38
2022-11-21T21:12:28.495Z,6.28
2022-11-21T21:14:57.543Z,5.28
2022-11-21T21:17:26.332Z,6.35
2022-11-21T21:19:55.618Z,6.40
2022-11-21T21:22:24.466Z,5.65
2022-11-21T21:24:53.940Z,8.63
2022-11-21T21:27:23.098Z,8.20
2022-11-21T21:29:52.155Z,11.07
2022-11-21T21:32:20.982Z,10.90
2022-11-21T21:34:49.933Z,10.30
2022-11-21T21:37:21.762Z,10.75
2022-11-21T21:39:51.208Z,9.90
2022-11-21T21:42:20.000Z,8.02
2022-11-21T21:44:49.243Z,7.40
2022-11-21T21:47:18.324Z,7.10
2022-11-21T21:49:47.489Z,7.30
2022-11-21T21:52:17.319Z,5.80
2022-11-21T21:54:46.603Z,6.72
2022-11-21T21:57:15.418Z,7.50
2022-11-21T21:59:44.523Z,7.70
2022-11-21T22:02:13.622Z,4.03
2022-11-21T22:04:43.787Z,5.93
2022-11-21T22:07:15.049Z,4.03
2022-11-21T22:09:43.897Z,4.05
2022-11-21T22:12:13.007Z,4.50
2022-11-21T22:14:41.871Z,4.80
2022-11-21T22:17:10.947Z,4.90
2022-11-21T22:19:39.752Z,5.05
2022-11-21T22:22:09.153Z,4.20
2022-11-21T22:24:40.332Z,4.95
2022-11-21T22:27:10.228Z,5.05
2022-11-21T22:29:39.044Z,4.33
2022-11-21T22:32:09.578Z,4.87
2022-11-21T22:34:38.744Z,5.32
2022-11-21T22:37:07.596Z,6.20
2022-11-21T22:39:36.799Z,4.68
2022-11-21T22:42:09.362Z,4.35
2022-11-21T22:44:38.522Z,5.93
2022-11-21T22:47:07.408Z,5.28
2022-11-21T22:49:36.900Z,5.13
2022-11-21T22:52:10.431Z,4.05
2022-11-21T22:54:39.587Z,4.50
2022-11-21T22:57:08.344Z,4.03
2022-11-21T22:59:37.314Z,4.75
2022-11-21T23:02:06.939Z,3.90
2022-11-21T23:04:36.616Z,4.38
2022-11-21T23:07:05.765Z,4.07
2022-11-21T23:09:35.282Z,5.53
2022-11-21T23:12:04.209Z,5.60
2022-11-21T23:14:33.187Z,5.15
2022-11-21T23:17:02.329Z,3.92
2022-11-21T23:19:31.747Z,4.13
2022-11-21T23:22:00.749Z,4.43
2022-11-21T23:24:31.348Z,4.88
2022-11-21T23:27:00.596Z,4.10
2022-11-21T23:29:30.186Z,4.63
2022-11-21T23:32:00.216Z,4.22
2022-11-21T23:34:30.417Z,5.32
2022-11-21T23:36:59.278Z,4.78
2022-11-21T23:39:28.865Z,4.93
2022-11-21T23:41:58.117Z,4.18
2022-11-21T23:44:27.532Z,6.80
2022-11-21T23:46:57.152Z,4.35
2022-11-21T23:49:27.245Z,4.80
2022-11-21T23:51:57.058Z,4.75
2022-11-21T23:54:26.085Z,8.25
2022-11-21T23:56:54.936Z,6.25
2022-11-21T23:59:24.219Z,7.07
